Terminal Aerodrome Forecast
Issued by NWS

Home | Current Version | Previous Version | Text Only | Print | Product List | Glossary On
Versions: 1 2 3 4 5 6 7 8 9 10 11 12
000
FTUS45 KLKN 261131
TAFEKO
TAF
KEKO 261131Z 2612/2712 08003KT P6SM FEW150 SCT250
     FM262000 24015G25KT P6SM VCTS BKN120CB
     FM270500 23006KT P6SM SKC=

USA.gov is the U.S. government's official web portal to all federal, state and local government web resources and services.